sensor_id;sensor_type;location;lat;lon;timestamp;pressure;altitude;pressure_sealevel;temperature;humidity
55301;BME280;58302;51.446;-2.000;2023-08-08T00:01:36;101066.56;;;11.56;100.00
55301;BME280;58302;51.446;-2.000;2023-08-08T00:04:02;101057.88;;;11.59;100.00
55301;BME280;58302;51.446;-2.000;2023-08-08T00:06:28;101062.78;;;11.57;100.00
55301;BME280;58302;51.446;-2.000;2023-08-08T00:08:54;101057.84;;;11.54;100.00
55301;BME280;58302;51.446;-2.000;2023-08-08T00:11:20;101055.91;;;11.49;100.00
55301;BME280;58302;51.446;-2.000;2023-08-08T00:13:46;101056.41;;;11.46;100.00
55301;BME280;58302;51.446;-2.000;2023-08-08T00:16:12;101057.75;;;11.44;100.00
55301;BME280;58302;51.446;-2.000;2023-08-08T00:18:38;101057.47;;;11.45;100.00
55301;BME280;58302;51.446;-2.000;2023-08-08T00:21:04;101054.50;;;11.47;100.00
55301;BME280;58302;51.446;-2.000;2023-08-08T00:23:30;101052.31;;;11.44;100.00
55301;BME280;58302;51.446;-2.000;2023-08-08T00:25:55;101057.75;;;11.44;100.00
55301;BME280;58302;51.446;-2.000;2023-08-08T00:28:21;101050.91;;;11.41;100.00
55301;BME280;58302;51.446;-2.000;2023-08-08T00:30:47;101061.53;;;11.43;100.00
55301;BME280;58302;51.446;-2.000;2023-08-08T00:33:13;101058.25;;;11.41;100.00
55301;BME280;58302;51.446;-2.000;2023-08-08T00:35:39;101051.72;;;11.42;100.00
55301;BME280;58302;51.446;-2.000;2023-08-08T00:38:05;101050.91;;;11.41;100.00
55301;BME280;58302;51.446;-2.000;2023-08-08T00:40:31;101053.34;;;11.43;100.00
55301;BME280;58302;51.446;-2.000;2023-08-08T00:42:57;101051.22;;;11.45;100.00
55301;BME280;58302;51.446;-2.000;2023-08-08T00:45:23;101040.06;;;11.46;100.00
55301;BME280;58302;51.446;-2.000;2023-08-08T00:47:49;101038.16;;;11.47;100.00
55301;BME280;58302;51.446;-2.000;2023-08-08T00:50:15;101040.06;;;11.46;100.00
55301;BME280;58302;51.446;-2.000;2023-08-08T00:52:44;101048.81;;;11.48;100.00
55301;BME280;58302;51.446;-2.000;2023-08-08T00:55:10;101048.56;;;11.50;100.00
55301;BME280;58302;51.446;-2.000;2023-08-08T00:57:36;101036.84;;;11.49;100.00
55301;BME280;58302;51.446;-2.000;2023-08-08T01:00:06;101038.81;;;11.54;100.00
55301;BME280;58302;51.446;-2.000;2023-08-08T01:02:33;101043.72;;;11.57;100.00
55301;BME280;58302;51.446;-2.000;2023-08-08T01:05:00;101038.53;;;11.55;100.00
55301;BME280;58302;51.446;-2.000;2023-08-08T01:07:41;101040.50;;;11.60;100.00
55301;BME280;58302;51.446;-2.000;2023-08-08T01:10:15;101044.28;;;11.59;100.00
55301;BME280;58302;51.446;-2.000;2023-08-08T01:12:45;101055.16;;;11.59;100.00
55301;BME280;58302;51.446;-2.000;2023-08-08T01:15:13;101063.66;;;11.63;100.00
55301;BME280;58302;51.446;-2.000;2023-08-08T01:17:40;101059.28;;;11.61;100.00
55301;BME280;58302;51.446;-2.000;2023-08-08T01:20:08;101049.97;;;11.57;100.00
55301;BME280;58302;51.446;-2.000;2023-08-08T01:22:39;101063.16;;;11.66;100.00
55301;BME280;58302;51.446;-2.000;2023-08-08T01:25:07;101058.25;;;11.68;100.00
55301;BME280;58302;51.446;-2.000;2023-08-08T01:27:35;101053.31;;;11.65;100.00
55301;BME280;58302;51.446;-2.000;2023-08-08T01:30:01;101047.47;;;11.51;100.00
55301;BME280;58302;51.446;-2.000;2023-08-08T01:32:27;101045.97;;;11.38;100.00
55301;BME280;58302;51.446;-2.000;2023-08-08T01:34:53;101066.88;;;11.32;100.00
55301;BME280;58302;51.446;-2.000;2023-08-08T01:37:36;101069.53;;;11.27;100.00
55301;BME280;58302;51.446;-2.000;2023-08-08T01:40:06;101068.41;;;11.23;100.00
55301;BME280;58302;51.446;-2.000;2023-08-08T01:42:33;101072.19;;;11.22;100.00
55301;BME280;58302;51.446;-2.000;2023-08-08T01:44:59;101071.06;;;11.18;100.00
55301;BME280;58302;51.446;-2.000;2023-08-08T01:47:26;101072.13;;;11.17;100.00
55301;BME280;58302;51.446;-2.000;2023-08-08T01:49:52;101074.25;;;11.15;100.00
55301;BME280;58302;51.446;-2.000;2023-08-08T01:52:18;101076.22;;;11.20;100.00
55301;BME280;58302;51.446;-2.000;2023-08-08T01:54:44;101080.09;;;11.24;100.00
55301;BME280;58302;51.446;-2.000;2023-08-08T01:57:09;101059.16;;;11.24;100.00
55301;BME280;58302;51.446;-2.000;2023-08-08T01:59:35;101070.84;;;11.25;100.00
55301;BME280;58302;51.446;-2.000;2023-08-08T02:02:01;101083.28;;;11.16;100.00
55301;BME280;58302;51.446;-2.000;2023-08-08T02:04:27;101081.31;;;11.11;100.00
55301;BME280;58302;51.446;-2.000;2023-08-08T02:06:53;101070.38;;;11.06;100.00
55301;BME280;58302;51.446;-2.000;2023-08-08T02:09:19;101085.34;;;11.08;100.00
55301;BME280;58302;51.446;-2.000;2023-08-08T02:11:45;101096.56;;;11.12;100.00
55301;BME280;58302;51.446;-2.000;2023-08-08T02:14:11;101093.91;;;11.17;100.00
55301;BME280;58302;51.446;-2.000;2023-08-08T02:16:37;101108.66;;;11.21;100.00
55301;BME280;58302;51.446;-2.000;2023-08-08T02:19:05;101121.47;;;11.26;100.00
55301;BME280;58302;51.446;-2.000;2023-08-08T02:21:31;101138.13;;;11.29;100.00
55301;BME280;58302;51.446;-2.000;2023-08-08T02:23:57;101139.75;;;11.30;100.00
55301;BME280;58302;51.446;-2.000;2023-08-08T02:26:25;101159.97;;;11.34;100.00
55301;BME280;58302;51.446;-2.000;2023-08-08T02:28:51;101150.41;;;11.32;100.00
55301;BME280;58302;51.446;-2.000;2023-08-08T02:31:17;101153.44;;;11.35;100.00
55301;BME280;58302;51.446;-2.000;2023-08-08T02:33:50;101155.66;;;11.39;100.00
55301;BME280;58302;51.446;-2.000;2023-08-08T02:36:17;101156.75;;;11.38;100.00
55301;BME280;58302;51.446;-2.000;2023-08-08T02:38:43;101158.38;;;11.39;100.00
55301;BME280;58302;51.446;-2.000;2023-08-08T02:41:10;101163.56;;;11.40;100.00
55301;BME280;58302;51.446;-2.000;2023-08-08T02:43:36;101174.44;;;11.40;100.00
55301;BME280;58302;51.446;-2.000;2023-08-08T02:46:02;101170.97;;;11.45;100.00
55301;BME280;58302;51.446;-2.000;2023-08-08T02:48:29;101165.00;;;11.48;100.00
55301;BME280;58302;51.446;-2.000;2023-08-08T02:50:55;101148.13;;;11.46;100.00
55301;BME280;58302;51.446;-2.000;2023-08-08T02:53:21;101163.97;;;11.49;100.00
55301;BME280;58302;51.446;-2.000;2023-08-08T02:55:47;101842.94;;;11.53;100.00
55301;BME280;58302;51.446;-2.000;2023-08-08T02:58:13;101858.00;;;11.55;100.00
55301;BME280;58302;51.446;-2.000;2023-08-08T03:00:39;101853.13;;;11.57;100.00
55301;BME280;58302;51.446;-2.000;2023-08-08T03:03:05;101857.28;;;11.60;100.00
55301;BME280;58302;51.446;-2.000;2023-08-08T03:05:31;101859.53;;;11.63;100.00
55301;BME280;58302;51.446;-2.000;2023-08-08T03:07:57;101861.91;;;11.71;100.00
55301;BME280;58302;51.446;-2.000;2023-08-08T03:10:23;101872.31;;;11.74;100.00
55301;BME280;58302;51.446;-2.000;2023-08-08T03:12:49;101862.84;;;11.77;100.00
55301;BME280;58302;51.446;-2.000;2023-08-08T03:15:15;101870.66;;;11.85;100.00
55301;BME280;58302;51.446;-2.000;2023-08-08T03:17:41;101870.41;;;11.86;100.00
55301;BME280;58302;51.446;-2.000;2023-08-08T03:20:07;101874.09;;;11.92;100.00
55301;BME280;58302;51.446;-2.000;2023-08-08T03:22:34;101870.53;;;11.92;100.00
55301;BME280;58302;51.446;-2.000;2023-08-08T03:25:00;101871.72;;;11.96;100.00
55301;BME280;58302;51.446;-2.000;2023-08-08T03:27:26;101853.72;;;11.95;100.00
55301;BME280;58302;51.446;-2.000;2023-08-08T03:29:52;101853.25;;;11.98;100.00
55301;BME280;58302;51.446;-2.000;2023-08-08T03:32:18;101848.38;;;12.00;100.00
55301;BME280;58302;51.446;-2.000;2023-08-08T03:34:44;101843.50;;;12.02;100.00
55301;BME280;58302;51.446;-2.000;2023-08-08T03:37:09;101830.72;;;12.02;100.00
55301;BME280;58302;51.446;-2.000;2023-08-08T03:39:35;101828.81;;;12.03;100.00
55301;BME280;58302;51.446;-2.000;2023-08-08T03:42:01;101823.38;;;12.03;100.00
55301;BME280;58302;51.446;-2.000;2023-08-08T03:44:27;101823.72;;;12.06;100.00
55301;BME280;58302;51.446;-2.000;2023-08-08T03:46:53;101820.75;;;12.08;100.00
55301;BME280;58302;51.446;-2.000;2023-08-08T03:49:19;101798.94;;;12.08;100.00
55301;BME280;58302;51.446;-2.000;2023-08-08T03:51:45;101799.31;;;12.11;100.00
55301;BME280;58302;51.446;-2.000;2023-08-08T03:54:11;101793.84;;;12.11;100.00
55301;BME280;58302;51.446;-2.000;2023-08-08T03:56:37;101783.53;;;12.13;100.00
55301;BME280;58302;51.446;-2.000;2023-08-08T03:59:03;101786.25;;;12.13;100.00
55301;BME280;58302;51.446;-2.000;2023-08-08T04:01:29;101781.97;;;12.18;100.00
55301;BME280;58302;51.446;-2.000;2023-08-08T04:03:55;101771.91;;;12.18;100.00
55301;BME280;58302;51.446;-2.000;2023-08-08T04:06:21;101771.41;;;12.21;100.00
55301;BME280;58302;51.446;-2.000;2023-08-08T04:08:47;101766.22;;;12.20;100.00
55301;BME280;58302;51.446;-2.000;2023-08-08T04:11:13;101753.41;;;12.20;100.00
55301;BME280;58302;51.446;-2.000;2023-08-08T04:13:38;101750.91;;;12.19;100.00
55301;BME280;58302;51.446;-2.000;2023-08-08T04:16:04;101750.69;;;12.20;100.00
55301;BME280;58302;51.446;-2.000;2023-08-08T04:18:30;101747.97;;;12.20;100.00
55301;BME280;58302;51.446;-2.000;2023-08-08T04:20:56;101744.16;;;12.21;100.00
55301;BME280;58302;51.446;-2.000;2023-08-08T04:23:22;101739.19;;;12.18;100.00
55301;BME280;58302;51.446;-2.000;2023-08-08T04:25:52;101734.91;;;12.22;100.00
55301;BME280;58302;51.446;-2.000;2023-08-08T04:28:18;101733.25;;;12.21;100.00
55301;BME280;58302;51.446;-2.000;2023-08-08T04:30:44;101729.94;;;12.19;100.00
55301;BME280;58302;51.446;-2.000;2023-08-08T04:33:10;101717.63;;;12.17;100.00
55301;BME280;58302;51.446;-2.000;2023-08-08T04:35:36;101715.75;;;12.17;100.00
55301;BME280;58302;51.446;-2.000;2023-08-08T04:38:03;101710.28;;;12.17;100.00
55301;BME280;58302;51.446;-2.000;2023-08-08T04:40:29;101712.66;;;12.13;100.00
55301;BME280;58302;51.446;-2.000;2023-08-08T04:42:55;101706.66;;;12.11;100.00
55301;BME280;58302;51.446;-2.000;2023-08-08T04:45:21;101711.28;;;12.11;100.00
55301;BME280;58302;51.446;-2.000;2023-08-08T04:47:47;101710.69;;;12.09;100.00
55301;BME280;58302;51.446;-2.000;2023-08-08T04:50:13;101707.38;;;12.07;100.00
55301;BME280;58302;51.446;-2.000;2023-08-08T04:52:39;101713.66;;;12.07;100.00
55301;BME280;58302;51.446;-2.000;2023-08-08T04:55:05;101709.63;;;12.10;100.00
55301;BME280;58302;51.446;-2.000;2023-08-08T04:57:31;101711.28;;;12.11;100.00
55301;BME280;58302;51.446;-2.000;2023-08-08T04:59:57;101709.94;;;12.13;100.00
55301;BME280;58302;51.446;-2.000;2023-08-08T05:02:23;101710.28;;;12.17;100.00
55301;BME280;58302;51.446;-2.000;2023-08-08T05:04:49;101715.25;;;12.20;100.00
55301;BME280;58302;51.446;-2.000;2023-08-08T05:07:15;101708.22;;;12.24;100.00
55301;BME280;58302;51.446;-2.000;2023-08-08T05:09:41;101709.66;;;12.27;100.00
55301;BME280;58302;51.446;-2.000;2023-08-08T05:12:07;101710.72;;;12.26;100.00
55301;BME280;58302;51.446;-2.000;2023-08-08T05:14:33;101718.16;;;12.30;100.00
55301;BME280;58302;51.446;-2.000;2023-08-08T05:17:02;101709.91;;;12.25;100.00
55301;BME280;58302;51.446;-2.000;2023-08-08T05:19:28;101717.47;;;12.23;100.00
55301;BME280;58302;51.446;-2.000;2023-08-08T05:21:54;101718.00;;;12.20;100.00
55301;BME280;58302;51.446;-2.000;2023-08-08T05:24:20;101720.47;;;12.22;100.00
55301;BME280;58302;51.446;-2.000;2023-08-08T05:26:46;101732.19;;;12.22;100.00
55301;BME280;58302;51.446;-2.000;2023-08-08T05:29:12;101747.97;;;12.20;100.00
55301;BME280;58302;51.446;-2.000;2023-08-08T05:31:38;101759.09;;;12.19;100.00
55301;BME280;58302;51.446;-2.000;2023-08-08T05:34:04;101768.00;;;12.14;100.00
55301;BME280;58302;51.446;-2.000;2023-08-08T05:36:30;101776.31;;;12.07;100.00
55301;BME280;58302;51.446;-2.000;2023-08-08T05:38:56;101789.94;;;12.07;100.00
55301;BME280;58302;51.446;-2.000;2023-08-08T05:41:22;101794.00;;;12.05;100.00
55301;BME280;58302;51.446;-2.000;2023-08-08T05:43:48;101807.13;;;12.08;100.00
55301;BME280;58302;51.446;-2.000;2023-08-08T05:46:14;101825.38;;;12.07;100.00
55301;BME280;58302;51.446;-2.000;2023-08-08T05:48:40;101824.44;;;12.02;100.00
55301;BME280;58302;51.446;-2.000;2023-08-08T05:51:05;101837.84;;;12.03;100.00
55301;BME280;58302;51.446;-2.000;2023-08-08T05:53:32;101846.72;;;11.99;100.00
55301;BME280;58302;51.446;-2.000;2023-08-08T05:55:58;101862.84;;;12.00;100.00
55301;BME280;58302;51.446;-2.000;2023-08-08T05:58:24;101879.19;;;12.00;100.00
55301;BME280;58302;51.446;-2.000;2023-08-08T06:00:50;101886.53;;;12.00;100.00
55301;BME280;58302;51.446;-2.000;2023-08-08T06:03:16;101900.72;;;12.02;100.00
55301;BME280;58302;51.446;-2.000;2023-08-08T06:05:42;101913.66;;;12.06;100.00
55301;BME280;58302;51.446;-2.000;2023-08-08T06:08:08;101933.09;;;12.10;100.00
55301;BME280;58302;51.446;-2.000;2023-08-08T06:10:37;101946.22;;;12.13;100.00
55301;BME280;58302;51.446;-2.000;2023-08-08T06:13:03;101968.50;;;12.22;100.00
55301;BME280;58302;51.446;-2.000;2023-08-08T06:15:29;102000.22;;;12.39;100.00
55301;BME280;58302;51.446;-2.000;2023-08-08T06:17:55;102015.06;;;12.44;100.00
55301;BME280;58302;51.446;-2.000;2023-08-08T06:20:21;102017.16;;;12.42;100.00
55301;BME280;58302;51.446;-2.000;2023-08-08T06:22:48;102031.88;;;12.40;100.00
55301;BME280;58302;51.446;-2.000;2023-08-08T06:25:14;102043.50;;;12.48;100.00
55301;BME280;58302;51.446;-2.000;2023-08-08T06:27:40;102046.44;;;12.58;100.00
55301;BME280;58302;51.446;-2.000;2023-08-08T06:30:06;102071.34;;;12.61;100.00
55301;BME280;58302;51.446;-2.000;2023-08-08T06:32:34;102074.31;;;12.60;100.00
55301;BME280;58302;51.446;-2.000;2023-08-08T06:35:00;102077.03;;;12.60;100.00
55301;BME280;58302;51.446;-2.000;2023-08-08T06:37:26;102075.97;;;12.61;100.00
55301;BME280;58302;51.446;-2.000;2023-08-08T06:39:52;102076.22;;;12.59;100.00
55301;BME280;58302;51.446;-2.000;2023-08-08T06:42:18;102070.97;;;12.58;100.00
55301;BME280;58302;51.446;-2.000;2023-08-08T06:44:44;102071.59;;;12.60;100.00
55301;BME280;58302;51.446;-2.000;2023-08-08T06:47:11;102077.03;;;12.60;100.00
55301;BME280;58302;51.446;-2.000;2023-08-08T06:49:37;102073.25;;;12.61;100.00
55301;BME280;58302;51.446;-2.000;2023-08-08T06:52:04;102081.78;;;12.64;100.00
55301;BME280;58302;51.446;-2.000;2023-08-08T06:54:31;102075.38;;;12.71;100.00
55301;BME280;58302;51.446;-2.000;2023-08-08T06:56:57;102070.59;;;12.78;100.00
55301;BME280;58302;51.446;-2.000;2023-08-08T06:59:23;102073.19;;;12.84;100.00
55301;BME280;58302;51.446;-2.000;2023-08-08T07:01:50;102069.75;;;12.89;100.00
55301;BME280;58302;51.446;-2.000;2023-08-08T07:04:17;102073.06;;;13.03;100.00
55301;BME280;58302;51.446;-2.000;2023-08-08T07:06:46;102066.00;;;13.07;100.00
55301;BME280;58302;51.446;-2.000;2023-08-08T07:09:12;102066.84;;;13.19;100.00
55301;BME280;58302;51.446;-2.000;2023-08-08T07:11:38;102069.19;;;13.27;100.00
55301;BME280;58302;51.446;-2.000;2023-08-08T07:14:04;102051.81;;;13.33;100.00
55301;BME280;58302;51.446;-2.000;2023-08-08T07:16:30;102049.03;;;13.45;100.00
55301;BME280;58302;51.446;-2.000;2023-08-08T07:18:56;102033.38;;;13.40;100.00
55301;BME280;58302;51.446;-2.000;2023-08-08T07:21:23;102027.63;;;13.54;100.00
55301;BME280;58302;51.446;-2.000;2023-08-08T07:23:49;102028.22;;;13.73;100.00
55301;BME280;58302;51.446;-2.000;2023-08-08T07:26:15;102021.19;;;13.93;100.00
55301;BME280;58302;51.446;-2.000;2023-08-08T07:28:41;102008.59;;;14.09;100.00
55301;BME280;58302;51.446;-2.000;2023-08-08T07:31:07;101999.78;;;14.24;100.00
55301;BME280;58302;51.446;-2.000;2023-08-08T07:33:33;101985.41;;;14.34;100.00
55301;BME280;58302;51.446;-2.000;2023-08-08T07:35:59;101964.41;;;14.39;100.00
55301;BME280;58302;51.446;-2.000;2023-08-08T07:38:25;101944.13;;;14.52;100.00
55301;BME280;58302;51.446;-2.000;2023-08-08T07:40:51;101899.63;;;14.62;100.00
55301;BME280;58302;51.446;-2.000;2023-08-08T07:43:17;101870.09;;;14.64;100.00
55301;BME280;58302;51.446;-2.000;2023-08-08T07:45:43;101832.44;;;14.76;100.00
55301;BME280;58302;51.446;-2.000;2023-08-08T07:48:09;101816.06;;;15.13;100.00
55301;BME280;58302;51.446;-2.000;2023-08-08T07:50:34;101802.59;;;15.44;100.00
55301;BME280;58302;51.446;-2.000;2023-08-08T07:53:00;101770.16;;;15.68;100.00
55301;BME280;58302;51.446;-2.000;2023-08-08T07:55:26;101715.38;;;15.83;100.00
55301;BME280;58302;51.446;-2.000;2023-08-08T07:57:53;101689.66;;;16.10;100.00
55301;BME280;58302;51.446;-2.000;2023-08-08T08:00:19;101632.63;;;16.12;100.00
55301;BME280;58302;51.446;-2.000;2023-08-08T08:02:46;101560.75;;;16.20;100.00
55301;BME280;58302;51.446;-2.000;2023-08-08T08:05:12;101519.06;;;16.23;100.00
55301;BME280;58302;51.446;-2.000;2023-08-08T08:07:40;101497.13;;;16.18;100.00
55301;BME280;58302;51.446;-2.000;2023-08-08T08:10:08;101477.91;;;16.28;100.00
55301;BME280;58302;51.446;-2.000;2023-08-08T08:12:34;101453.72;;;16.45;100.00
55301;BME280;58302;51.446;-2.000;2023-08-08T08:15:01;101434.97;;;16.63;100.00
55301;BME280;58302;51.446;-2.000;2023-08-08T08:17:27;101418.19;;;16.79;100.00
55301;BME280;58302;51.446;-2.000;2023-08-08T08:19:54;101395.03;;;16.91;100.00
55301;BME280;58302;51.446;-2.000;2023-08-08T08:22:20;101389.84;;;16.89;100.00
55301;BME280;58302;51.446;-2.000;2023-08-08T08:24:46;101363.50;;;16.88;100.00
55301;BME280;58302;51.446;-2.000;2023-08-08T08:27:12;101342.72;;;16.77;100.00
55301;BME280;58302;51.446;-2.000;2023-08-08T08:29:39;101347.16;;;16.63;100.00
55301;BME280;58302;51.446;-2.000;2023-08-08T08:32:05;101357.88;;;16.59;100.00
55301;BME280;58302;51.446;-2.000;2023-08-08T08:34:31;101361.69;;;16.63;100.00
55301;BME280;58302;51.446;-2.000;2023-08-08T08:36:57;101355.88;;;16.70;100.00
55301;BME280;58302;51.446;-2.000;2023-08-08T08:39:23;101347.38;;;16.76;100.00
55301;BME280;58302;51.446;-2.000;2023-08-08T08:41:54;101347.22;;;16.97;100.00
55301;BME280;58302;51.446;-2.000;2023-08-08T08:44:25;101323.28;;;17.02;100.00
55301;BME280;58302;51.446;-2.000;2023-08-08T08:46:52;101328.88;;;17.26;100.00
55301;BME280;58302;51.446;-2.000;2023-08-08T08:49:21;101309.69;;;17.21;100.00
55301;BME280;58302;51.446;-2.000;2023-08-08T08:51:47;101298.09;;;17.24;100.00
55301;BME280;58302;51.446;-2.000;2023-08-08T08:54:13;101297.78;;;17.31;100.00
55301;BME280;58302;51.446;-2.000;2023-08-08T08:56:41;101294.66;;;17.08;100.00
55301;BME280;58302;51.446;-2.000;2023-08-08T08:59:07;101314.44;;;17.10;100.00
55301;BME280;58302;51.446;-2.000;2023-08-08T09:01:34;101303.16;;;17.12;100.00
55301;BME280;58302;51.446;-2.000;2023-08-08T09:04:01;101308.59;;;17.17;100.00
55301;BME280;58302;51.446;-2.000;2023-08-08T09:06:29;101300.72;;;17.10;100.00
55301;BME280;58302;51.446;-2.000;2023-08-08T09:08:55;101321.53;;;17.17;100.00
55301;BME280;58302;51.446;-2.000;2023-08-08T09:11:21;101325.91;;;17.18;100.00
55301;BME280;58302;51.446;-2.000;2023-08-08T09:13:47;101306.25;;;17.05;100.00
55301;BME280;58302;51.446;-2.000;2023-08-08T09:16:13;101302.50;;;16.91;100.00
55301;BME280;58302;51.446;-2.000;2023-08-08T09:18:39;101319.63;;;16.78;100.00
55301;BME280;58302;51.446;-2.000;2023-08-08T09:21:05;101347.16;;;16.63;100.00
55301;BME280;58302;51.446;-2.000;2023-08-08T09:23:31;101369.63;;;16.65;100.00
55301;BME280;58302;51.446;-2.000;2023-08-08T09:25:57;101367.16;;;16.68;100.00
55301;BME280;58302;51.446;-2.000;2023-08-08T09:28:25;101374.84;;;16.76;100.00
55301;BME280;58302;51.446;-2.000;2023-08-08T09:30:51;101396.66;;;16.97;100.00
55301;BME280;58302;51.446;-2.000;2023-08-08T09:33:17;101396.78;;;17.21;100.00
55301;BME280;58302;51.446;-2.000;2023-08-08T09:35:43;101368.03;;;17.03;100.00
55301;BME280;58302;51.446;-2.000;2023-08-08T09:38:11;101391.97;;;16.97;100.00
55301;BME280;58302;51.446;-2.000;2023-08-08T09:40:37;101416.19;;;16.90;100.00
55301;BME280;58302;51.446;-2.000;2023-08-08T09:43:03;101436.03;;;16.82;100.00
55301;BME280;58302;51.446;-2.000;2023-08-08T09:45:36;101471.47;;;16.68;100.00
55301;BME280;58302;51.446;-2.000;2023-08-08T09:48:04;101479.50;;;16.49;100.00
55301;BME280;58302;51.446;-2.000;2023-08-08T09:50:30;101506.41;;;16.37;100.00
55301;BME280;58302;51.446;-2.000;2023-08-08T09:52:58;101538.00;;;16.24;100.00
55301;BME280;58302;51.446;-2.000;2023-08-08T09:55:25;101560.75;;;16.10;100.00
55301;BME280;58302;51.446;-2.000;2023-08-08T09:57:52;101594.78;;;16.19;100.00
55301;BME280;58302;51.446;-2.000;2023-08-08T10:00:18;101622.22;;;16.34;100.00
55301;BME280;58302;51.446;-2.000;2023-08-08T10:02:46;101630.69;;;16.53;100.00
55301;BME280;58302;51.446;-2.000;2023-08-08T10:05:14;101615.59;;;16.45;100.00
55301;BME280;58302;51.446;-2.000;2023-08-08T10:07:40;101616.44;;;16.36;100.00
55301;BME280;58302;51.446;-2.000;2023-08-08T10:10:08;101630.44;;;16.54;100.00
55301;BME280;58302;51.446;-2.000;2023-08-08T10:12:38;101644.41;;;16.68;100.00
55301;BME280;58302;51.446;-2.000;2023-08-08T10:15:09;101638.38;;;16.66;100.00
55301;BME280;58302;51.446;-2.000;2023-08-08T10:17:36;101629.06;;;16.72;100.00
55301;BME280;58302;51.446;-2.000;2023-08-08T10:20:04;101618.34;;;16.71;100.00
55301;BME280;58302;51.446;-2.000;2023-08-08T10:22:41;101622.44;;;16.83;100.00
55301;BME280;58302;51.446;-2.000;2023-08-08T10:25:08;101635.34;;;16.83;100.00
55301;BME280;58302;51.446;-2.000;2023-08-08T10:27:35;101626.84;;;16.79;100.00
55301;BME280;58302;51.446;-2.000;2023-08-08T10:30:07;101625.50;;;16.72;100.00
55301;BME280;58302;51.446;-2.000;2023-08-08T10:32:44;101616.41;;;16.56;100.00
55301;BME280;58302;51.446;-2.000;2023-08-08T10:35:12;101621.63;;;16.52;100.00
55301;BME280;58302;51.446;-2.000;2023-08-08T10:37:38;101618.94;;;16.32;100.00
55301;BME280;58302;51.446;-2.000;2023-08-08T10:40:06;101638.94;;;16.38;100.00
55301;BME280;58302;51.446;-2.000;2023-08-08T10:42:41;101641.94;;;16.31;100.00
55301;BME280;58302;51.446;-2.000;2023-08-08T10:45:10;101652.38;;;16.24;100.00
55301;BME280;58302;51.446;-2.000;2023-08-08T10:47:38;101640.84;;;16.12;100.00
55301;BME280;58302;51.446;-2.000;2023-08-08T10:52:30;101671.00;;;16.06;100.00
55301;BME280;58302;51.446;-2.000;2023-08-08T10:54:57;101694.59;;;16.02;100.00
55301;BME280;58302;51.446;-2.000;2023-08-08T10:57:27;101707.19;;;15.98;100.00
55301;BME280;58302;51.446;-2.000;2023-08-08T10:59:53;101720.63;;;15.90;100.00
55301;BME280;58302;51.446;-2.000;2023-08-08T11:02:20;101727.41;;;15.82;100.00
55301;BME280;58302;51.446;-2.000;2023-08-08T11:04:48;101721.13;;;15.81;100.00
55301;BME280;58302;51.446;-2.000;2023-08-08T11:07:14;101736.75;;;15.81;100.00
55301;BME280;58302;51.446;-2.000;2023-08-08T11:09:42;101753.78;;;15.88;100.00
55301;BME280;58302;51.446;-2.000;2023-08-08T11:12:15;101754.84;;;15.87;100.00
55301;BME280;58302;51.446;-2.000;2023-08-08T11:14:41;101763.66;;;15.89;100.00
55301;BME280;58302;51.446;-2.000;2023-08-08T11:17:07;101777.44;;;16.15;100.00
55301;BME280;58302;51.446;-2.000;2023-08-08T11:19:39;101787.38;;;16.36;100.00
55301;BME280;58302;51.446;-2.000;2023-08-08T11:22:09;101774.75;;;16.40;100.00
55301;BME280;58302;51.446;-2.000;2023-08-08T11:24:36;101777.53;;;16.55;100.00
55301;BME280;58302;51.446;-2.000;2023-08-08T11:27:02;101770.66;;;16.68;100.00
55301;BME280;58302;51.446;-2.000;2023-08-08T11:29:28;101766.31;;;16.82;100.00
55301;BME280;58302;51.446;-2.000;2023-08-08T11:31:57;101744.59;;;16.96;100.00
55301;BME280;58302;51.446;-2.000;2023-08-08T11:34:23;101711.34;;;17.08;100.00
55301;BME280;58302;51.446;-2.000;2023-08-08T11:36:49;101685.75;;;17.33;100.00
55301;BME280;58302;51.446;-2.000;2023-08-08T11:39:15;101680.94;;;17.64;100.00
55301;BME280;58302;51.446;-2.000;2023-08-08T11:41:42;101631.47;;;17.64;100.00
55301;BME280;58302;51.446;-2.000;2023-08-08T11:44:08;101599.03;;;17.61;100.00
55301;BME280;58302;51.446;-2.000;2023-08-08T11:46:34;101561.88;;;17.63;100.00
55301;BME280;58302;51.446;-2.000;2023-08-08T11:49:04;101554.94;;;17.81;100.00
55301;BME280;58302;51.446;-2.000;2023-08-08T11:51:34;101528.44;;;17.90;100.00
55301;BME280;58302;51.446;-2.000;2023-08-08T11:54:02;101501.81;;;18.15;100.00
55301;BME280;58302;51.446;-2.000;2023-08-08T11:56:33;101467.81;;;18.30;100.00
55301;BME280;58302;51.446;-2.000;2023-08-08T11:59:00;101435.94;;;18.24;100.00
55301;BME280;58302;51.446;-2.000;2023-08-08T12:01:27;101430.13;;;18.30;100.00
55301;BME280;58302;51.446;-2.000;2023-08-08T12:03:53;101427.81;;;18.37;100.00
55301;BME280;58302;51.446;-2.000;2023-08-08T12:06:20;101455.38;;;18.56;100.00
55301;BME280;58302;51.446;-2.000;2023-08-08T12:08:47;101448.41;;;18.64;100.00
55301;BME280;58302;51.446;-2.000;2023-08-08T12:11:15;101441.63;;;18.80;100.00
55301;BME280;58302;51.446;-2.000;2023-08-08T12:13:43;101420.25;;;19.10;100.00
55301;BME280;58302;51.446;-2.000;2023-08-08T12:16:10;101388.84;;;19.43;100.00
55301;BME280;58302;51.446;-2.000;2023-08-08T12:18:37;101360.78;;;20.02;100.00
55301;BME280;58302;51.446;-2.000;2023-08-08T12:21:05;101296.03;;;20.21;100.00
55301;BME280;58302;51.446;-2.000;2023-08-08T12:23:31;101234.69;;;20.24;100.00
55301;BME280;58302;51.446;-2.000;2023-08-08T12:25:58;101177.53;;;20.25;100.00
55301;BME280;58302;51.446;-2.000;2023-08-08T12:28:25;101160.59;;;20.18;100.00
55301;BME280;58302;51.446;-2.000;2023-08-08T12:30:51;101167.41;;;19.98;100.00